Time;durP1;ratioP1;P1;durP2;ratioP2;P2;SDS_P1;SDS_P2;PMS_P1;PMS_P2;Temp;Humidity;BMP_temperature;BMP_pressure;BME280_temperature;BME280_humidity;BME280_pressure;Samples;Min_cycle;Max_cycle;Signal;HPM_P1;HPM_P2
2022/10/24 00:00:41;;;;;;;6.85;2.30;;;;;;;;;;4993006;28;20045;-75
2022/10/24 00:03:08;;;;;;;8.73;2.20;;;;;;;;;;4992794;28;20046;-75
2022/10/24 00:05:34;;;;;;;7.55;2.17;;;;;;;;;;4992859;28;20073;-75
2022/10/24 00:08:00;;;;;;;7.05;2.40;;;;;;;;;;4975308;28;20030;-75
2022/10/24 00:10:26;;;;;;;8.00;2.33;;;;;;;;;;4996628;28;20026;-75
2022/10/24 00:12:55;;;;;;;9.70;2.53;;;;;;;;;;5006300;28;20034;-75
2022/10/24 00:15:21;;;;;;;6.60;2.33;;;;;;;;;;5011198;28;20029;-75
2022/10/24 00:17:47;;;;;;;6.97;2.67;;;;;;;;;;4992460;28;20061;-75
2022/10/24 00:20:14;;;;;;;8.73;2.17;;;;;;;;;;5006506;28;20034;-76
2022/10/24 00:22:40;;;;;;;11.45;2.72;;;;;;;;;;5012126;28;20045;-75
2022/10/24 00:25:06;;;;;;;7.00;3.00;;;;;;;;;;5002622;28;20037;-75
2022/10/24 00:27:33;;;;;;;8.60;2.35;;;;;;;;;;5006060;28;20041;-75
2022/10/24 00:29:59;;;;;;;6.57;2.33;;;;;;;;;;4992249;28;20076;-75
2022/10/24 00:32:25;;;;;;;7.18;2.53;;;;;;;;;;4992296;28;20041;-75
2022/10/24 00:34:51;;;;;;;8.63;2.50;;;;;;;;;;5000855;28;20392;-75
2022/10/24 00:37:17;;;;;;;6.72;2.35;;;;;;;;;;5011767;28;20354;-75
2022/10/24 00:39:44;;;;;;;11.48;2.45;;;;;;;;;;5011881;28;20099;-75
2022/10/24 00:42:11;;;;;;;15.52;2.50;;;;;;;;;;5009692;28;20488;-76
2022/10/24 00:44:38;;;;;;;11.63;2.70;;;;;;;;;;4992540;28;20528;-75
2022/10/24 00:47:09;;;;;;;11.95;2.40;;;;;;;;;;4992250;28;20026;-75
2022/10/24 00:49:46;;;;;;;8.27;2.47;;;;;;;;;;4991620;28;20034;-75
2022/10/24 00:52:14;;;;;;;9.38;2.22;;;;;;;;;;4991995;28;20061;-75
2022/10/24 00:54:40;;;;;;;9.00;2.17;;;;;;;;;;4991839;28;20362;-75
2022/10/24 00:57:12;;;;;;;8.27;2.58;;;;;;;;;;4991761;28;20458;-75
2022/10/24 00:59:41;;;;;;;15.48;2.40;;;;;;;;;;4991879;28;20026;-75
2022/10/24 01:02:07;;;;;;;9.07;2.22;;;;;;;;;;4991871;28;20030;-75
2022/10/24 01:04:33;;;;;;;9.75;2.15;;;;;;;;;;4991259;28;20037;-75
2022/10/24 01:07:05;;;;;;;6.72;1.92;;;;;;;;;;4991589;28;20381;-75
2022/10/24 01:09:31;;;;;;;6.53;1.85;;;;;;;;;;4993935;28;20026;-75
2022/10/24 01:11:57;;;;;;;6.63;2.10;;;;;;;;;;5000317;28;20389;-75
2022/10/24 01:14:31;;;;;;;7.22;2.10;;;;;;;;;;4993756;28;20034;-75
2022/10/24 01:17:06;;;;;;;5.63;1.85;;;;;;;;;;4997143;28;20026;-75
2022/10/24 01:19:32;;;;;;;10.32;1.90;;;;;;;;;;5000255;28;20022;-75
2022/10/24 01:22:01;;;;;;;10.20;2.10;;;;;;;;;;5011197;28;20045;-75
2022/10/24 01:24:46;;;;;;;7.53;1.80;;;;;;;;;;5007703;28;20030;-75
2022/10/24 01:27:31;;;;;;;9.60;2.10;;;;;;;;;;5004053;28;20041;-75
2022/10/24 01:30:06;;;;;;;9.27;1.92;;;;;;;;;;4993231;28;20034;-75
2022/10/24 01:32:39;;;;;;;7.03;1.70;;;;;;;;;;5011213;28;20568;-75
2022/10/24 01:35:16;;;;;;;10.90;2.35;;;;;;;;;;5011289;28;20030;-75
2022/10/24 01:37:44;;;;;;;7.28;1.55;;;;;;;;;;5011170;28;20445;-75
2022/10/24 01:40:15;;;;;;;6.82;1.70;;;;;;;;;;5011081;28;20073;-75
2022/10/24 01:42:43;;;;;;;4.78;1.73;;;;;;;;;;5004590;28;20054;-75
2022/10/24 01:45:11;;;;;;;9.18;1.67;;;;;;;;;;4991438;28;20049;-75
2022/10/24 01:47:39;;;;;;;11.13;1.85;;;;;;;;;;4991446;28;20058;-75
2022/10/24 01:50:07;;;;;;;5.88;2.00;;;;;;;;;;4991412;28;20030;-75
2022/10/24 01:52:35;;;;;;;7.15;1.85;;;;;;;;;;4973962;28;20462;-75
2022/10/24 01:55:02;;;;;;;7.40;1.92;;;;;;;;;;4991559;28;20018;-75
2022/10/24 01:57:28;;;;;;;15.38;2.00;;;;;;;;;;4991562;28;20495;-75
2022/10/24 01:59:55;;;;;;;11.15;1.80;;;;;;;;;;4991364;28;20053;-75
2022/10/24 02:02:23;;;;;;;7.15;1.90;;;;;;;;;;4991414;28;20085;-75
2022/10/24 02:04:52;;;;;;;8.57;1.85;;;;;;;;;;4991151;28;20027;-75
2022/10/24 02:07:19;;;;;;;6.32;1.75;;;;;;;;;;4991661;28;20019;-75
2022/10/24 02:09:48;;;;;;;9.23;2.10;;;;;;;;;;4995263;28;20029;-75
2022/10/24 02:12:15;;;;;;;5.53;1.85;;;;;;;;;;4982577;28;20026;-75
2022/10/24 02:14:53;;;;;;;5.43;2.00;;;;;;;;;;5010996;28;20026;-75
2022/10/24 02:17:19;;;;;;;20.80;2.38;;;;;;;;;;4990934;28;20042;-76
2022/10/24 02:19:46;;;;;;;5.20;1.70;;;;;;;;;;5005728;28;20499;-75
2022/10/24 02:22:25;;;;;;;14.07;2.45;;;;;;;;;;4996519;28;20038;-75
2022/10/24 02:25:03;;;;;;;8.80;2.13;;;;;;;;;;5008135;28;20085;-75
2022/10/24 02:27:40;;;;;;;8.85;1.75;;;;;;;;;;5008363;28;20495;-75
2022/10/24 02:30:14;;;;;;;9.10;1.75;;;;;;;;;;4994397;28;20022;-75
2022/10/24 02:32:41;;;;;;;4.40;1.48;;;;;;;;;;4977146;28;20062;-75
2022/10/24 02:35:08;;;;;;;7.88;1.55;;;;;;;;;;4997748;28;20030;-75
2022/10/24 02:37:38;;;;;;;9.52;2.03;;;;;;;;;;5014155;28;20033;-76
2022/10/24 02:40:05;;;;;;;10.75;1.77;;;;;;;;;;5014083;28;20023;-75
2022/10/24 02:42:32;;;;;;;6.32;1.80;;;;;;;;;;5008712;28;20014;-75
2022/10/24 02:44:58;;;;;;;7.40;1.60;;;;;;;;;;4994442;28;20142;-76
2022/10/24 02:47:25;;;;;;;8.98;1.58;;;;;;;;;;4994399;28;20077;-75
2022/10/24 02:49:52;;;;;;;8.38;2.72;;;;;;;;;;4976958;28;20065;-75
2022/10/24 02:52:18;;;;;;;7.90;1.15;;;;;;;;;;4994077;28;20117;-75
2022/10/24 02:54:44;;;;;;;10.10;1.60;;;;;;;;;;4994183;28;20039;-75
2022/10/24 02:57:12;;;;;;;10.75;2.00;;;;;;;;;;4994136;28;20477;-75
2022/10/24 02:59:38;;;;;;;6.53;1.33;;;;;;;;;;4994569;28;20049;-75
2022/10/24 03:02:04;;;;;;;2.90;1.30;;;;;;;;;;4994365;28;20333;-75
2022/10/24 03:04:30;;;;;;;4.97;1.50;;;;;;;;;;4994058;28;20442;-75
2022/10/24 03:06:56;;;;;;;8.98;1.42;;;;;;;;;;4993839;28;20034;-75
2022/10/24 03:09:22;;;;;;;6.90;2.25;;;;;;;;;;4995446;28;20058;-75
2022/10/24 03:11:48;;;;;;;4.82;1.20;;;;;;;;;;5007663;28;20034;-75
2022/10/24 03:14:14;;;;;;;7.45;1.40;;;;;;;;;;4994154;28;20026;-75
2022/10/24 03:16:41;;;;;;;6.75;2.00;;;;;;;;;;5005913;28;20033;-75
2022/10/24 03:19:07;;;;;;;6.55;1.30;;;;;;;;;;5007737;28;20330;-75
2022/10/24 03:21:33;;;;;;;4.53;1.20;;;;;;;;;;4975973;28;20338;-75
2022/10/24 03:23:59;;;;;;;10.70;1.45;;;;;;;;;;4994569;28;20741;-75
2022/10/24 03:26:25;;;;;;;4.13;1.17;;;;;;;;;;5001896;28;20026;-75
2022/10/24 03:28:51;;;;;;;7.80;1.40;;;;;;;;;;5000405;28;20032;-75
2022/10/24 03:31:17;;;;;;;7.65;1.35;;;;;;;;;;4989177;28;20519;-75
2022/10/24 03:33:43;;;;;;;4.57;1.17;;;;;;;;;;5013316;28;20068;-75
2022/10/24 03:36:09;;;;;;;7.95;2.05;;;;;;;;;;5012850;28;20030;-75
2022/10/24 03:38:35;;;;;;;7.00;1.35;;;;;;;;;;5011784;28;20026;-75
2022/10/24 03:41:01;;;;;;;6.38;1.40;;;;;;;;;;5012853;28;20029;-74
2022/10/24 03:43:27;;;;;;;8.60;1.58;;;;;;;;;;4999600;28;20389;-75
2022/10/24 03:45:53;;;;;;;10.05;1.33;;;;;;;;;;4993082;28;20065;-75
2022/10/24 03:48:20;;;;;;;6.53;1.10;;;;;;;;;;4993079;28;20568;-74
2022/10/24 03:50:46;;;;;;;4.22;0.90;;;;;;;;;;4993248;28;20436;-75
2022/10/24 03:53:12;;;;;;;8.07;1.10;;;;;;;;;;4993031;28;20034;-75
2022/10/24 03:55:38;;;;;;;5.80;1.40;;;;;;;;;;4993259;28;20037;-74
2022/10/24 03:58:04;;;;;;;7.47;1.20;;;;;;;;;;4992686;28;20041;-75
2022/10/24 04:00:33;;;;;;;2.40;0.65;;;;;;;;;;4993008;28;20030;-75
2022/10/24 04:02:59;;;;;;;11.25;1.33;;;;;;;;;;4975242;28;20412;-75
2022/10/24 04:05:25;;;;;;;8.20;1.98;;;;;;;;;;4992599;28;20104;-75
2022/10/24 04:07:51;;;;;;;4.10;0.95;;;;;;;;;;4992865;28;20025;-74
2022/10/24 04:10:17;;;;;;;5.93;1.23;;;;;;;;;;4993790;28;20089;-75
2022/10/24 04:12:43;;;;;;;6.85;1.17;;;;;;;;;;4992910;28;20063;-76
2022/10/24 04:15:09;;;;;;;7.38;1.10;;;;;;;;;;5010587;28;20458;-75
2022/10/24 04:17:35;;;;;;;11.45;1.38;;;;;;;;;;4994158;28;20133;-75
2022/10/24 04:20:01;;;;;;;5.90;1.05;;;;;;;;;;4998478;28;20023;-75
2022/10/24 04:22:27;;;;;;;15.35;1.58;;;;;;;;;;4992755;28;20477;-74
2022/10/24 04:24:53;;;;;;;4.05;0.93;;;;;;;;;;4996880;28;20077;-75
2022/10/24 04:27:19;;;;;;;7.30;1.00;;;;;;;;;;5006334;28;20030;-74
2022/10/24 04:29:46;;;;;;;8.65;1.33;;;;;;;;;;4975007;28;20033;-75
2022/10/24 04:32:12;;;;;;;8.57;1.25;;;;;;;;;;4992318;28;20045;-75
2022/10/24 04:34:38;;;;;;;7.93;1.08;;;;;;;;;;4992502;28;20045;-75
2022/10/24 04:37:04;;;;;;;5.80;1.27;;;;;;;;;;5003917;28;20038;-75
2022/10/24 04:39:30;;;;;;;7.03;0.82;;;;;;;;;;5011910;28;20033;-75
2022/10/24 04:41:56;;;;;;;6.18;0.98;;;;;;;;;;5010741;28;20021;-74
2022/10/24 04:44:22;;;;;;;9.32;1.15;;;;;;;;;;4974802;28;20054;-74
2022/10/24 04:46:49;;;;;;;8.05;1.10;;;;;;;;;;4992138;28;20030;-75
2022/10/24 04:49:15;;;;;;;6.78;1.30;;;;;;;;;;4974214;28;20085;-75
2022/10/24 04:51:41;;;;;;;8.68;0.90;;;;;;;;;;4974753;28;20322;-75
2022/10/24 04:54:08;;;;;;;5.47;0.93;;;;;;;;;;4992279;28;20461;-74
2022/10/24 04:56:34;;;;;;;5.50;0.95;;;;;;;;;;4992200;28;20769;-75
2022/10/24 04:59:00;;;;;;;9.02;0.85;;;;;;;;;;4974260;28;20604;-75
2022/10/24 05:01:26;;;;;;;10.88;1.00;;;;;;;;;;4991628;28;20042;-75
2022/10/24 05:03:52;;;;;;;6.00;0.90;;;;;;;;;;4991543;28;20073;-75
2022/10/24 05:06:18;;;;;;;4.22;0.90;;;;;;;;;;4991900;28;20482;-75
2022/10/24 05:08:44;;;;;;;8.93;1.20;;;;;;;;;;4991878;28;20018;-75
2022/10/24 05:11:11;;;;;;;18.88;1.85;;;;;;;;;;4996761;28;20041;-75
2022/10/24 05:13:41;;;;;;;9.43;1.15;;;;;;;;;;5011100;28;20060;-75
2022/10/24 05:16:07;;;;;;;3.95;1.25;;;;;;;;;;5003146;28;20085;-75
2022/10/24 05:18:33;;;;;;;3.33;0.90;;;;;;;;;;4993461;28;20109;-75
2022/10/24 05:21:00;;;;;;;11.52;1.33;;;;;;;;;;5011576;28;20392;-74
2022/10/24 05:23:26;;;;;;;4.25;1.10;;;;;;;;;;5011308;28;20033;-75
2022/10/24 05:25:53;;;;;;;3.25;0.90;;;;;;;;;;4998780;28;20046;-75
2022/10/24 05:28:19;;;;;;;6.18;1.08;;;;;;;;;;5002860;28;20038;-75
2022/10/24 05:30:45;;;;;;;8.77;1.00;;;;;;;;;;4991475;28;20462;-74
2022/10/24 05:33:11;;;;;;;7.63;1.10;;;;;;;;;;4973987;28;20034;-75
2022/10/24 05:35:38;;;;;;;8.48;1.88;;;;;;;;;;4974285;28;20130;-75
2022/10/24 05:38:04;;;;;;;6.13;1.10;;;;;;;;;;5007097;28;20437;-74
2022/10/24 05:40:30;;;;;;;5.28;0.90;;;;;;;;;;5011355;28;20030;-75
2022/10/24 05:42:56;;;;;;;4.45;1.00;;;;;;;;;;4993992;28;20026;-75
2022/10/24 05:45:22;;;;;;;4.25;0.85;;;;;;;;;;5010365;28;20034;-75
2022/10/24 05:47:48;;;;;;;4.25;0.90;;;;;;;;;;4997084;28;20388;-75
2022/10/24 05:50:15;;;;;;;5.88;0.80;;;;;;;;;;4991770;28;20043;-76
2022/10/24 05:52:41;;;;;;;8.93;1.25;;;;;;;;;;5000967;28;20098;-74
2022/10/24 05:55:08;;;;;;;5.35;1.17;;;;;;;;;;5013606;28;20109;-75
2022/10/24 05:57:34;;;;;;;8.55;1.00;;;;;;;;;;5008263;28;20361;-75
2022/10/24 06:00:00;;;;;;;5.65;0.90;;;;;;;;;;4994963;28;20030;-74
2022/10/24 06:02:26;;;;;;;5.20;1.00;;;;;;;;;;5013533;28;20185;-74
2022/10/24 06:04:54;;;;;;;6.72;1.10;;;;;;;;;;5005928;28;20050;-75
2022/10/24 06:07:20;;;;;;;5.55;1.08;;;;;;;;;;4994843;28;20034;-75
2022/10/24 06:09:46;;;;;;;8.15;1.02;;;;;;;;;;5001695;28;20085;-75
2022/10/24 06:12:13;;;;;;;7.00;1.00;;;;;;;;;;5011489;28;20092;-76
2022/10/24 06:14:39;;;;;;;8.15;0.95;;;;;;;;;;5010247;28;20124;-75
2022/10/24 06:17:07;;;;;;;6.40;1.00;;;;;;;;;;5007438;28;20034;-76
2022/10/24 06:19:34;;;;;;;7.10;1.60;;;;;;;;;;5005818;28;20096;-76
2022/10/24 06:22:00;;;;;;;7.70;1.00;;;;;;;;;;5008281;28;20030;-76
2022/10/24 06:24:26;;;;;;;10.80;1.27;;;;;;;;;;4996930;28;20030;-75
2022/10/24 06:26:52;;;;;;;4.20;1.20;;;;;;;;;;5012447;28;20552;-75
2022/10/24 06:29:18;;;;;;;8.70;1.00;;;;;;;;;;5012251;28;20033;-75
2022/10/24 06:31:44;;;;;;;7.90;1.00;;;;;;;;;;4996425;28;20496;-75
2022/10/24 06:34:10;;;;;;;6.72;0.95;;;;;;;;;;5003191;28;20065;-76
2022/10/24 06:36:36;;;;;;;7.05;1.23;;;;;;;;;;4997486;28;20117;-75
2022/10/24 06:39:03;;;;;;;9.98;1.20;;;;;;;;;;5010272;28;20382;-75
2022/10/24 06:41:29;;;;;;;6.75;1.30;;;;;;;;;;4993797;28;20025;-75
2022/10/24 06:43:56;;;;;;;5.05;1.45;;;;;;;;;;4995515;28;20748;-76
2022/10/24 06:46:23;;;;;;;8.40;0.93;;;;;;;;;;5009691;28;20030;-76
2022/10/24 06:48:52;;;;;;;6.07;1.30;;;;;;;;;;5007416;28;20042;-75
2022/10/24 06:51:18;;;;;;;7.60;1.25;;;;;;;;;;4985763;28;20037;-75
2022/10/24 06:53:44;;;;;;;9.55;1.23;;;;;;;;;;4992571;28;20516;-75
2022/10/24 06:56:11;;;;;;;12.07;1.52;;;;;;;;;;5005886;28;20030;-75
2022/10/24 06:58:38;;;;;;;7.78;1.10;;;;;;;;;;4989675;28;20424;-74
2022/10/24 07:01:11;;;;;;;11.45;1.40;;;;;;;;;;5007041;28;20030;-75
2022/10/24 07:03:37;;;;;;;10.43;1.15;;;;;;;;;;5009221;28;20022;-75
2022/10/24 07:06:07;;;;;;;11.45;2.00;;;;;;;;;;5000722;28;20429;-75
2022/10/24 07:08:33;;;;;;;8.40;1.10;;;;;;;;;;4993690;28;20053;-75
2022/10/24 07:10:59;;;;;;;10.38;1.50;;;;;;;;;;5003097;28;20054;-76
2022/10/24 07:13:25;;;;;;;8.82;1.92;;;;;;;;;;5000616;28;20479;-76
2022/10/24 07:15:54;;;;;;;8.63;1.20;;;;;;;;;;4995951;28;20041;-76
2022/10/24 07:18:20;;;;;;;7.13;1.08;;;;;;;;;;5001935;28;20052;-76
2022/10/24 07:20:46;;;;;;;9.75;2.05;;;;;;;;;;4997764;28;20034;-75
2022/10/24 07:23:12;;;;;;;8.43;1.40;;;;;;;;;;5002615;28;20109;-75
2022/10/24 07:25:39;;;;;;;10.45;1.00;;;;;;;;;;5002740;28;20503;-76
2022/10/24 07:28:06;;;;;;;6.93;1.20;;;;;;;;;;5007254;28;20033;-76
2022/10/24 07:30:32;;;;;;;10.50;1.20;;;;;;;;;;5000553;28;20358;-75
2022/10/24 07:32:58;;;;;;;11.13;2.17;;;;;;;;;;4992163;28;20057;-75
2022/10/24 07:35:24;;;;;;;8.50;1.45;;;;;;;;;;5006152;28;20034;-75
2022/10/24 07:37:52;;;;;;;6.35;1.05;;;;;;;;;;5005136;28;20384;-76
2022/10/24 07:40:18;;;;;;;11.55;1.30;;;;;;;;;;5002246;28;20049;-75
2022/10/24 07:42:44;;;;;;;9.88;1.63;;;;;;;;;;4998394;28;20026;-76
2022/10/24 07:45:10;;;;;;;7.15;1.20;;;;;;;;;;5000824;28;20038;-76
2022/10/24 07:47:36;;;;;;;6.35;1.25;;;;;;;;;;4984671;28;20042;-75
2022/10/24 07:50:03;;;;;;;7.32;1.60;;;;;;;;;;5007927;28;20027;-75
2022/10/24 07:52:29;;;;;;;8.80;1.38;;;;;;;;;;4997943;28;20022;-76
2022/10/24 07:54:55;;;;;;;6.95;1.25;;;;;;;;;;5008083;28;20099;-76
2022/10/24 07:57:22;;;;;;;10.10;1.63;;;;;;;;;;5003626;28;20064;-76
2022/10/24 07:59:48;;;;;;;13.07;1.52;;;;;;;;;;5000023;28;20521;-75
2022/10/24 08:02:15;;;;;;;9.50;1.02;;;;;;;;;;5005630;28;20030;-75
2022/10/24 08:04:41;;;;;;;9.70;1.02;;;;;;;;;;4988595;28;20064;-75
2022/10/24 08:07:11;;;;;;;6.05;1.38;;;;;;;;;;5000618;28;20031;-75
2022/10/24 08:09:41;;;;;;;6.35;1.50;;;;;;;;;;5000031;28;20034;-75
2022/10/24 08:12:07;;;;;;;8.23;1.50;;;;;;;;;;4989408;28;20026;-75
2022/10/24 08:14:34;;;;;;;9.27;1.05;;;;;;;;;;4987466;28;20429;-76
2022/10/24 08:17:00;;;;;;;5.00;0.95;;;;;;;;;;5007291;28;20117;-75
2022/10/24 08:19:26;;;;;;;11.85;1.08;;;;;;;;;;5005593;28;20711;-75
2022/10/24 08:21:52;;;;;;;8.57;1.35;;;;;;;;;;5005399;28;20501;-74
2022/10/24 08:24:18;;;;;;;8.52;1.15;;;;;;;;;;4986985;28;20040;-75
2022/10/24 08:26:44;;;;;;;10.32;1.20;;;;;;;;;;5000773;28;20030;-75
2022/10/24 08:29:13;;;;;;;7.97;1.15;;;;;;;;;;5001374;28;20480;-75
2022/10/24 08:31:39;;;;;;;12.73;1.40;;;;;;;;;;5004835;28;20037;-75
2022/10/24 08:34:05;;;;;;;13.23;1.50;;;;;;;;;;5006661;28;20038;-75
2022/10/24 08:36:33;;;;;;;6.90;1.15;;;;;;;;;;5003584;28;20116;-75
2022/10/24 08:38:59;;;;;;;10.02;1.25;;;;;;;;;;5005459;28;20022;-75
2022/10/24 08:41:25;;;;;;;8.95;1.55;;;;;;;;;;5005385;28;20030;-76
2022/10/24 08:43:52;;;;;;;9.52;1.40;;;;;;;;;;5007960;28;20034;-76
2022/10/24 08:46:18;;;;;;;10.63;1.40;;;;;;;;;;5005887;28;20038;-76
2022/10/24 08:48:50;;;;;;;7.97;1.35;;;;;;;;;;5011221;28;20121;-75
2022/10/24 08:51:29;;;;;;;7.78;1.30;;;;;;;;;;5010826;28;20018;-76
2022/10/24 08:53:56;;;;;;;5.78;1.10;;;;;;;;;;5011909;28;20026;-76
2022/10/24 08:56:24;;;;;;;11.13;1.48;;;;;;;;;;5011039;28;20044;-76
2022/10/24 08:58:51;;;;;;;7.78;1.25;;;;;;;;;;5012208;28;20034;-76
2022/10/24 09:01:37;;;;;;;10.43;1.55;;;;;;;;;;5012069;28;20084;-77
2022/10/24 09:04:06;;;;;;;8.68;1.23;;;;;;;;;;5011918;28;20032;-76
2022/10/24 09:06:32;;;;;;;5.60;1.27;;;;;;;;;;5012067;28;20041;-77
2022/10/24 09:09:00;;;;;;;9.32;1.38;;;;;;;;;;4994481;28;20058;-77
2022/10/24 09:11:26;;;;;;;10.27;1.33;;;;;;;;;;5007694;28;20057;-76
2022/10/24 09:13:54;;;;;;;8.75;1.10;;;;;;;;;;4992745;28;20031;-76
2022/10/24 09:16:21;;;;;;;14.30;1.35;;;;;;;;;;5008605;28;20029;-76
2022/10/24 09:18:48;;;;;;;7.68;1.65;;;;;;;;;;5004388;28;20022;-76
2022/10/24 09:21:14;;;;;;;8.27;0.98;;;;;;;;;;4987377;28;20480;-76
2022/10/24 09:23:42;;;;;;;9.40;1.17;;;;;;;;;;4989225;28;20045;-80
2022/10/24 09:26:13;;;;;;;9.20;1.02;;;;;;;;;;5000171;28;20034;-78
2022/10/24 09:28:39;;;;;;;4.72;0.80;;;;;;;;;;5002042;28;20378;-78
2022/10/24 09:31:15;;;;;;;10.70;1.15;;;;;;;;;;5005525;28;20153;-77
2022/10/24 09:33:41;;;;;;;4.95;0.93;;;;;;;;;;5004023;28;20017;-77
2022/10/24 09:36:12;;;;;;;8.20;1.08;;;;;;;;;;4997326;28;20125;-77
2022/10/24 09:38:42;;;;;;;6.72;1.10;;;;;;;;;;5001058;28;20472;-77
2022/10/24 09:41:17;;;;;;;3.63;0.80;;;;;;;;;;5000532;28;20073;-76
2022/10/24 09:43:43;;;;;;;6.60;1.25;;;;;;;;;;4999755;28;20038;-75
2022/10/24 09:46:12;;;;;;;13.90;0.85;;;;;;;;;;4998566;28;20034;-76
2022/10/24 09:48:56;;;;;;;8.95;1.08;;;;;;;;;;4999318;28;20038;-76
2022/10/24 09:51:22;;;;;;;7.00;1.00;;;;;;;;;;5014925;28;20026;-76
2022/10/24 09:54:18;;;;;;;8.10;1.25;;;;;;;;;;5015054;28;20483;-77
2022/10/24 09:56:45;;;;;;;7.68;1.15;;;;;;;;;;5002106;28;20065;-77
2022/10/24 09:59:17;;;;;;;12.02;1.40;;;;;;;;;;5015271;28;20472;-77
2022/10/24 10:01:44;;;;;;;12.80;1.67;;;;;;;;;;5015634;28;20469;-77
2022/10/24 10:04:15;;;;;;;6.15;0.93;;;;;;;;;;4997350;28;20492;-76
2022/10/24 10:06:49;;;;;;;6.15;1.10;;;;;;;;;;5014854;28;20477;-75
2022/10/24 10:09:27;;;;;;;7.63;1.00;;;;;;;;;;5007949;28;20026;-75
2022/10/24 10:11:57;;;;;;;11.02;1.10;;;;;;;;;;5006735;28;20057;-76
2022/10/24 10:14:24;;;;;;;8.07;0.90;;;;;;;;;;5006667;28;20018;-76
2022/10/24 10:17:01;;;;;;;5.43;0.85;;;;;;;;;;5001506;28;20117;-76
2022/10/24 10:19:30;;;;;;;5.85;1.20;;;;;;;;;;5005651;28;20021;-76
2022/10/24 10:22:16;;;;;;;7.38;1.00;;;;;;;;;;5004864;28;20180;-75
2022/10/24 10:24:44;;;;;;;11.35;1.55;;;;;;;;;;5004176;28;20049;-76
2022/10/24 10:27:31;;;;;;;7.88;0.93;;;;;;;;;;5005120;28;20026;-76
2022/10/24 10:30:13;;;;;;;4.90;0.80;;;;;;;;;;5001264;28;20010;-76
2022/10/24 10:32:58;;;;;;;9.00;1.10;;;;;;;;;;4989719;28;20120;-76
2022/10/24 10:35:27;;;;;;;6.10;1.02;;;;;;;;;;5001591;28;20104;-77
2022/10/24 10:37:59;;;;;;;6.53;1.10;;;;;;;;;;5005073;28;20029;-76
2022/10/24 10:40:28;;;;;;;8.57;1.17;;;;;;;;;;5007669;28;20013;-78
2022/10/24 10:43:13;;;;;;;5.35;1.20;;;;;;;;;;5004666;28;20050;-77
2022/10/24 10:45:41;;;;;;;9.73;1.52;;;;;;;;;;5004187;28;20031;-77
2022/10/24 10:48:07;;;;;;;8.75;1.05;;;;;;;;;;5005493;28;20048;-76
2022/10/24 10:50:57;;;;;;;5.22;1.35;;;;;;;;;;5006158;28;20416;-76
2022/10/24 10:53:26;;;;;;;3.15;0.65;;;;;;;;;;5005849;28;20473;-76
2022/10/24 10:55:57;;;;;;;9.05;1.20;;;;;;;;;;4999377;28;20088;-77
2022/10/24 10:58:29;;;;;;;6.57;1.02;;;;;;;;;;5007558;28;20104;-75
2022/10/24 11:00:55;;;;;;;;;;;;;;;;;;5003088;28;20133;-75
2022/10/24 11:03:27;;;;;;;5.22;1.13;;;;;;;;;;5002158;28;19944;-75
2022/10/24 11:05:53;;;;;;;6.65;1.38;;;;;;;;;;5002520;28;20037;-75
2022/10/24 11:08:29;;;;;;;8.23;0.88;;;;;;;;;;5002934;28;20038;-75
2022/10/24 11:11:06;;;;;;;5.82;0.70;;;;;;;;;;5002823;28;20085;-75
2022/10/24 11:13:36;;;;;;;4.15;0.73;;;;;;;;;;4992490;28;20025;-75
2022/10/24 11:16:04;;;;;;;5.78;0.98;;;;;;;;;;5003992;28;20564;-76
2022/10/24 11:18:33;;;;;;;6.22;0.88;;;;;;;;;;5001418;28;20037;-76
2022/10/24 11:21:02;;;;;;;5.20;1.00;;;;;;;;;;5000823;28;20022;-75
2022/10/24 11:23:32;;;;;;;3.47;0.82;;;;;;;;;;5001346;28;20058;-76
2022/10/24 11:26:10;;;;;;;4.97;1.00;;;;;;;;;;4998787;28;20543;-76
2022/10/24 11:28:43;;;;;;;8.60;0.98;;;;;;;;;;5000415;28;20025;-76
2022/10/24 11:31:12;;;;;;;7.18;1.08;;;;;;;;;;5003119;28;20120;-76
2022/10/24 11:33:45;;;;;;;7.70;1.10;;;;;;;;;;5002690;28;20026;-76
2022/10/24 11:36:38;;;;;;;5.65;1.00;;;;;;;;;;5002043;28;20718;-75
2022/10/24 11:39:23;;;;;;;6.63;0.93;;;;;;;;;;4997459;28;20101;-75
2022/10/24 11:41:54;;;;;;;11.05;1.50;;;;;;;;;;5007131;28;20033;-76
2022/10/24 11:44:23;;;;;;;7.93;1.55;;;;;;;;;;5004465;28;20021;-76
2022/10/24 11:46:53;;;;;;;7.50;1.13;;;;;;;;;;5001322;28;20033;-76
2022/10/24 11:49:24;;;;;;;5.55;1.40;;;;;;;;;;5003007;28;20037;-76
2022/10/24 11:51:53;;;;;;;7.60;1.30;;;;;;;;;;5005981;28;20105;-77
2022/10/24 11:54:23;;;;;;;7.07;1.10;;;;;;;;;;5002053;28;20461;-76
2022/10/24 11:56:58;;;;;;;4.85;1.05;;;;;;;;;;5000882;28;20454;-76
2022/10/24 11:59:24;;;;;;;5.05;0.70;;;;;;;;;;5002880;28;20080;-76
2022/10/24 12:02:09;;;;;;;8.43;0.95;;;;;;;;;;5010868;28;20516;-76
2022/10/24 12:04:58;;;;;;;9.25;1.00;;;;;;;;;;5001019;28;20097;-76
2022/10/24 12:07:44;;;;;;;6.32;0.98;;;;;;;;;;4987190;28;20092;-76
2022/10/24 12:10:10;;;;;;;4.65;1.13;;;;;;;;;;4998456;28;20529;-75
2022/10/24 12:12:54;;;;;;;4.03;0.95;;;;;;;;;;5006235;28;20076;-76
2022/10/24 12:15:50;;;;;;;4.45;0.80;;;;;;;;;;5001688;28;20018;-75
2022/10/24 12:18:28;;;;;;;7.53;1.08;;;;;;;;;;4983820;28;20041;-77
2022/10/24 12:20:55;;;;;;;4.35;1.25;;;;;;;;;;5005921;28;20030;-76
2022/10/24 12:23:22;;;;;;;5.20;1.00;;;;;;;;;;5011916;28;20026;-76
2022/10/24 12:26:00;;;;;;;3.67;0.90;;;;;;;;;;5011018;28;20053;-76
2022/10/24 12:28:27;;;;;;;5.63;1.00;;;;;;;;;;5000730;28;20018;-77
2022/10/24 12:31:10;;;;;;;2.95;0.80;;;;;;;;;;5005866;28;20099;-76
2022/10/24 12:33:36;;;;;;;3.20;0.75;;;;;;;;;;5009892;28;20014;-77
2022/10/24 12:36:02;;;;;;;6.50;0.90;;;;;;;;;;4988421;28;20038;-77
2022/10/24 12:38:28;;;;;;;5.90;1.23;;;;;;;;;;4983570;28;20539;-76
2022/10/24 12:40:56;;;;;;;6.85;1.23;;;;;;;;;;5008097;28;20037;-77
2022/10/24 12:43:46;;;;;;;9.95;1.00;;;;;;;;;;5008665;28;20018;-77
2022/10/24 12:46:24;;;;;;;7.55;0.80;;;;;;;;;;5006784;28;20072;-77
2022/10/24 12:48:56;;;;;;;7.80;1.45;;;;;;;;;;5009203;28;20038;-79
2022/10/24 12:51:26;;;;;;;7.40;1.30;;;;;;;;;;5011475;28;20061;-78
2022/10/24 12:54:10;;;;;;;8.27;1.00;;;;;;;;;;4995297;28;20105;-77
2022/10/24 12:56:59;;;;;;;5.30;1.30;;;;;;;;;;5009202;28;20025;-77
2022/10/24 12:59:27;;;;;;;8.70;1.40;;;;;;;;;;5010536;28;20029;-78
2022/10/24 13:02:12;;;;;;;6.88;1.05;;;;;;;;;;5008846;28;20029;-77
2022/10/24 13:04:41;;;;;;;7.03;1.38;;;;;;;;;;5009875;28;20037;-77
2022/10/24 13:07:19;;;;;;;5.97;0.85;;;;;;;;;;5011624;28;20038;-77
2022/10/24 13:10:04;;;;;;;6.03;1.17;;;;;;;;;;5001320;28;20060;-77
2022/10/24 13:12:33;;;;;;;6.95;1.00;;;;;;;;;;5011221;28;20073;-77
2022/10/24 13:15:18;;;;;;;4.60;1.02;;;;;;;;;;4993564;28;20031;-77
2022/10/24 13:18:03;;;;;;;8.00;1.70;;;;;;;;;;5010755;28;20197;-77
2022/10/24 13:20:33;;;;;;;4.50;1.00;;;;;;;;;;5010656;28;20038;-77
2022/10/24 13:23:01;;;;;;;5.82;1.08;;;;;;;;;;5012010;28;20026;-77
2022/10/24 13:25:34;;;;;;;10.52;1.25;;;;;;;;;;4989502;28;20026;-77
2022/10/24 13:28:18;;;;;;;6.15;1.33;;;;;;;;;;5001564;28;20060;-77
2022/10/24 13:30:48;;;;;;;6.10;1.20;;;;;;;;;;5002610;28;20025;-77
2022/10/24 13:33:35;;;;;;;7.10;1.38;;;;;;;;;;4997031;28;20018;-77
2022/10/24 13:36:07;;;;;;;8.40;1.50;;;;;;;;;;5003013;28;20488;-77
2022/10/24 13:38:34;;;;;;;7.38;1.30;;;;;;;;;;5000184;28;20030;-77
2022/10/24 13:41:00;;;;;;;4.57;1.40;;;;;;;;;;5000268;28;20030;-77
2022/10/24 13:43:26;;;;;;;11.35;1.90;;;;;;;;;;5001596;28;20022;-78
2022/10/24 13:45:52;;;;;;;9.80;1.73;;;;;;;;;;4990809;28;20039;-77
2022/10/24 13:48:20;;;;;;;5.60;1.50;;;;;;;;;;4992004;28;20022;-77
2022/10/24 13:50:49;;;;;;;8.70;1.60;;;;;;;;;;5008571;28;20088;-77
2022/10/24 13:53:19;;;;;;;5.60;1.42;;;;;;;;;;5012147;28;20022;-77
2022/10/24 13:55:49;;;;;;;6.20;1.50;;;;;;;;;;5012119;28;20057;-78
2022/10/24 13:58:15;;;;;;;9.32;1.67;;;;;;;;;;5000434;28;20049;-78
2022/10/24 14:00:43;;;;;;;9.55;1.65;;;;;;;;;;4994200;28;20034;-78
2022/10/24 14:03:20;;;;;;;10.52;2.10;;;;;;;;;;5002498;28;20026;-78
2022/10/24 14:05:59;;;;;;;14.15;7.18;;;;;;;;;;5002662;28;20092;-78
2022/10/24 14:08:28;;;;;;;16.10;3.35;;;;;;;;;;4994824;28;20033;-78
2022/10/24 14:10:54;;;;;;;20.77;2.67;;;;;;;;;;4991093;28;20204;-78
2022/10/24 14:13:23;;;;;;;8.55;1.83;;;;;;;;;;5002827;28;20037;-78
2022/10/24 14:15:53;;;;;;;11.82;3.33;;;;;;;;;;5001181;28;20065;-78
2022/10/24 14:18:20;;;;;;;6.72;1.13;;;;;;;;;;4998879;28;20030;-78
2022/10/24 14:20:53;;;;;;;6.63;1.58;;;;;;;;;;5010870;28;20424;-78
2022/10/24 14:23:35;;;;;;;9.25;1.60;;;;;;;;;;5012818;28;20022;-78
2022/10/24 14:26:01;;;;;;;;;;;;;;;;;;5004905;28;20064;-78
2022/10/24 14:28:29;;;;;;;11.65;2.03;;;;;;;;;;5004044;28;19941;-78
2022/10/24 14:30:57;;;;;;;6.28;1.40;;;;;;;;;;4992371;28;20034;-78
2022/10/24 14:33:25;;;;;;;7.63;1.58;;;;;;;;;;4997032;28;20068;-78
2022/10/24 14:35:52;;;;;;;8.20;2.33;;;;;;;;;;4997078;28;20475;-78
2022/10/24 14:38:18;;;;;;;4.53;1.38;;;;;;;;;;5015025;28;20504;-78
2022/10/24 14:40:46;;;;;;;8.88;1.60;;;;;;;;;;5013203;28;20400;-79
2022/10/24 14:43:14;;;;;;;8.15;1.63;;;;;;;;;;5001111;28;20434;-78
2022/10/24 14:45:40;;;;;;;12.15;1.70;;;;;;;;;;5012596;28;20065;-79
2022/10/24 14:48:15;;;;;;;8.80;1.70;;;;;;;;;;4996170;28;20058;-79
2022/10/24 14:50:43;;;;;;;6.15;1.55;;;;;;;;;;4995387;28;20050;-80
2022/10/24 14:53:35;;;;;;;9.77;1.55;;;;;;;;;;4995771;28;20037;-78